CheckWX is a tool to help pilots better visualize weather data.  It is not intended as a substitute for an official pre-flight weather briefing.

09:05:26 UTC

KSXT METAR
Sexton Summit Airport
Sexton Summit, Oregon, USA
Current

1 hour ago

KSXT 250756Z AUTO 14005KT 10SM CLR 04/M03 A3046 RMK AO2 SLP323 T00441033 400831028
Observed
Feb-25 @ 07:56 UTC
Wind
  • 140° at 5 KTS
Visibility
10 SM
Flight Rules
VFR
Cloud Levels
  • Clear skies
Temperature
C / 39°F
Dewpoint
-3°C / 27°F
Humidity
61%
Altimeter
30.46" Hg
Pressure
1031.52 hPa
Previous

2 hours ago

KSXT 250656Z AUTO 13005KT 10SM CLR 06/M07 A3046 RMK AO2 SLP323 T00561067
Observed
Feb-25 @ 06:56 UTC
Wind
  • 130° at 5 KTS
Visibility
10 SM
Flight Rules
VFR
Cloud Levels
  • Clear skies
Temperature
C / 43°F
Dewpoint
-7°C / 19°F
Humidity
39%
Altimeter
30.46" Hg
Pressure
1031.52 hPa
Previous

3 hours ago

KSXT 250556Z AUTO 00000KT 10SM CLR 06/M07 A3047 RMK AO2 SLP329 T00561067 10067 20028 53003
Observed
Feb-25 @ 05:56 UTC
Visibility
10 SM
Flight Rules
VFR
Cloud Levels
  • Clear skies
Temperature
C / 43°F
Dewpoint
-7°C / 19°F
Humidity
39%
Altimeter
30.47" Hg
Pressure
1031.82 hPa